createdAt,value
2019-04-14T00:00:01.064Z,3.1
2019-04-14T00:01:00.629Z,3.0
2019-04-14T00:02:01.305Z,3.1
2019-04-14T00:03:02.283Z,3.1
2019-04-14T00:04:03.032Z,3.0
2019-04-14T00:05:03.986Z,3.0
2019-04-14T00:06:04.831Z,3.1
2019-04-14T00:07:05.745Z,3.1
2019-04-14T00:08:06.675Z,2.9
2019-04-14T00:09:06.043Z,2.9
2019-04-14T00:10:07.131Z,3.0
2019-04-14T00:11:08.315Z,2.9
2019-04-14T00:12:09.006Z,2.9
2019-04-14T00:13:09.016Z,2.9
2019-04-14T00:14:09.624Z,2.9
2019-04-14T00:15:23.426Z,2.8
2019-04-14T00:16:11.742Z,2.8
2019-04-14T00:17:11.456Z,2.7
2019-04-14T00:18:12.192Z,2.7
2019-04-14T00:19:13.032Z,2.6
2019-04-14T00:20:14.239Z,2.5
2019-04-14T00:21:15.160Z,2.5
2019-04-14T00:22:16.187Z,2.5
2019-04-14T00:23:15.565Z,2.5
2019-04-14T00:24:16.323Z,2.4
2019-04-14T00:25:17.424Z,2.3
2019-04-14T00:26:18.377Z,2.3
2019-04-14T00:27:19.287Z,2.3
2019-04-14T00:28:18.944Z,2.3
2019-04-14T00:29:19.625Z,2.1
2019-04-14T00:30:20.813Z,2.2
2019-04-14T00:31:21.635Z,2.3
2019-04-14T00:32:22.588Z,2.2
2019-04-14T00:33:23.485Z,2.3
2019-04-14T00:34:23.005Z,2.2
2019-04-14T00:35:23.680Z,2.3
2019-04-14T00:36:24.364Z,2.2
2019-04-14T00:37:25.222Z,2.2
2019-04-14T00:38:26.005Z,2.2
2019-04-14T00:39:27.278Z,2.1
2019-04-14T00:40:29.521Z,2.0
2019-04-14T00:41:36.298Z,1.9
2019-04-14T00:42:28.416Z,1.9
2019-04-14T00:43:29.096Z,1.9
2019-04-14T00:44:29.771Z,2.0
2019-04-14T00:45:39.380Z,1.9
2019-04-14T00:46:33.688Z,1.9
2019-04-14T00:47:31.797Z,1.8
2019-04-14T00:48:32.475Z,1.8
2019-04-14T00:49:33.306Z,1.8
2019-04-14T00:50:34.172Z,1.8
2019-04-14T00:51:37.804Z,1.8
2019-04-14T00:52:35.184Z,1.6
2019-04-14T00:53:36.055Z,1.7
2019-04-14T00:54:37.036Z,1.8
2019-04-14T00:55:37.956Z,1.6
2019-04-14T00:56:38.808Z,1.7
2019-04-14T00:57:39.751Z,1.5
2019-04-14T00:58:39.234Z,1.5
2019-04-14T00:59:39.925Z,1.5
2019-04-14T01:00:40.844Z,1.4
2019-04-14T01:01:41.634Z,1.5
2019-04-14T01:02:42.940Z,1.5
2019-04-14T01:03:43.562Z,1.4
2019-04-14T01:04:43.344Z,1.3
2019-04-14T01:05:44.035Z,1.3
2019-04-14T01:06:44.911Z,1.3
2019-04-14T01:07:45.584Z,1.3
2019-04-14T01:08:46.823Z,1.4
2019-04-14T01:09:46.736Z,1.4
2019-04-14T01:10:47.657Z,1.4
2019-04-14T01:11:48.774Z,1.5
2019-04-14T01:12:49.634Z,1.5
2019-04-14T01:13:50.720Z,1.6
2019-04-14T01:14:50.108Z,1.5
2019-04-14T01:15:58.838Z,1.5
2019-04-14T01:16:51.793Z,1.5
2019-04-14T01:17:52.870Z,1.5
2019-04-14T01:18:53.711Z,1.4
2019-04-14T01:19:53.486Z,1.6
2019-04-14T01:20:54.171Z,1.5
2019-04-14T01:21:54.866Z,1.4
2019-04-14T01:22:55.530Z,1.5
2019-04-14T01:23:56.609Z,1.5
2019-04-14T01:24:57.561Z,1.5
2019-04-14T01:25:58.452Z,1.4
2019-04-14T01:26:59.455Z,1.4
2019-04-14T01:27:58.904Z,1.4
2019-04-14T01:28:59.582Z,1.3
2019-04-14T01:30:00.384Z,1.4
2019-04-14T01:31:01.187Z,1.3
2019-04-14T01:32:02.335Z,1.3
2019-04-14T01:33:03.264Z,1.3
2019-04-14T01:34:04.062Z,1.3
2019-04-14T01:35:03.641Z,1.3
2019-04-14T01:36:04.316Z,1.3
2019-04-14T01:37:05.217Z,1.2
2019-04-14T01:38:05.912Z,1.1
2019-04-14T01:39:06.981Z,1.1
2019-04-14T01:40:07.537Z,1.2
2019-04-14T01:41:08.534Z,1.3
2019-04-14T01:42:09.430Z,1.2
2019-04-14T01:43:09.979Z,1.2
2019-04-14T01:44:09.728Z,1.1
2019-04-14T01:45:10.393Z,1.0
2019-04-14T01:46:17.870Z,1.0
2019-04-14T01:47:11.780Z,1.1
2019-04-14T01:48:12.739Z,1.0
2019-04-14T01:49:13.663Z,0.8
2019-04-14T01:50:14.660Z,0.9
2019-04-14T01:51:15.567Z,0.8
2019-04-14T01:52:15.135Z,0.8
2019-04-14T01:53:16.106Z,0.8
2019-04-14T01:54:17.121Z,0.8
2019-04-14T01:55:17.781Z,0.7
2019-04-14T01:56:18.719Z,0.8
2019-04-14T01:57:19.978Z,0.8
2019-04-14T01:58:20.746Z,0.8
2019-04-14T01:59:20.559Z,0.8
2019-04-14T02:00:21.241Z,0.8
2019-04-14T02:01:21.923Z,0.8
2019-04-14T02:02:22.709Z,0.7
2019-04-14T02:03:23.843Z,0.7
2019-04-14T02:04:24.568Z,0.7
2019-04-14T02:05:25.665Z,0.7
2019-04-14T02:06:26.610Z,0.6
2019-04-14T02:07:27.635Z,0.6
2019-04-14T02:08:28.382Z,0.5
2019-04-14T02:09:29.492Z,0.5
2019-04-14T02:10:30.386Z,0.5
2019-04-14T02:11:29.763Z,0.5
2019-04-14T02:12:30.425Z,0.4
2019-04-14T02:13:31.162Z,0.5
2019-04-14T02:14:32.244Z,0.5
2019-04-14T02:15:33.097Z,0.5
2019-04-14T02:16:40.215Z,0.5
2019-04-14T02:17:35.033Z,0.5
2019-04-14T02:18:36.097Z,0.4
2019-04-14T02:19:37.056Z,0.4
2019-04-14T02:20:36.317Z,0.4
2019-04-14T02:21:36.991Z,0.4
2019-04-14T02:22:37.681Z,0.3
2019-04-14T02:23:38.650Z,0.2
2019-04-14T02:24:39.575Z,0.2
2019-04-14T02:25:40.706Z,0.2
2019-04-14T02:26:41.593Z,0.2
2019-04-14T02:27:42.865Z,0.2
2019-04-14T02:28:42.305Z,0.3
2019-04-14T02:29:43.008Z,0.3
2019-04-14T02:30:52.323Z,0.4
2019-04-14T02:32:11.365Z,0.4
2019-04-14T02:33:17.667Z,0.4
2019-04-14T02:34:19.116Z,0.5
2019-04-14T02:35:25.522Z,0.4
2019-04-14T02:36:27.894Z,0.5
2019-04-14T02:38:33.970Z,0.4
2019-04-14T02:39:24.176Z,0.3
2019-04-14T02:40:27.296Z,0.4
2019-04-14T02:41:48.398Z,0.4
2019-04-14T02:42:37.044Z,0.4
2019-04-14T02:43:33.294Z,0.4
2019-04-14T02:45:35.357Z,0.3
2019-04-14T02:48:52.535Z,0.4
2019-04-14T02:49:36.998Z,0.4
2019-04-14T02:50:30.070Z,0.4
2019-04-14T02:51:33.624Z,0.4
2019-04-14T02:52:45.175Z,0.3
2019-04-14T02:53:47.135Z,0.3
2019-04-14T02:55:49.085Z,0.4
2019-04-14T02:56:45.440Z,0.3
2019-04-14T02:57:49.358Z,0.3
2019-04-14T02:59:49.590Z,0.3
2019-04-14T03:01:06.886Z,0.3
2019-04-14T03:02:09.298Z,0.3
2019-04-14T03:02:48.752Z,0.3
2019-04-14T03:03:49.300Z,0.3
2019-04-14T03:04:56.613Z,0.4
2019-04-14T03:06:01.113Z,0.3
2019-04-14T03:06:54.503Z,0.3
2019-04-14T03:08:00.515Z,0.3
2019-04-14T03:09:20.277Z,0.3
2019-04-14T03:10:20.651Z,0.3
2019-04-14T03:11:07.070Z,0.3
2019-04-14T03:12:00.800Z,0.3
2019-04-14T03:13:08.733Z,0.3
2019-04-14T03:14:06.284Z,0.3
2019-04-14T03:16:15.284Z,0.2
2019-04-14T03:19:14.043Z,0.2
2019-04-14T03:20:22.464Z,0.3
2019-04-14T03:21:19.704Z,0.3
2019-04-14T03:22:28.915Z,0.3
2019-04-14T03:23:23.868Z,0.3
2019-04-14T03:24:15.917Z,0.2
2019-04-14T03:25:11.464Z,0.1
2019-04-14T03:26:21.220Z,0.2
2019-04-14T03:27:31.277Z,0.2
2019-04-14T03:28:26.301Z,0.2
2019-04-14T03:29:37.125Z,0.2
2019-04-14T03:31:52.463Z,0.1
2019-04-14T03:37:20.167Z,0.1
2019-04-14T03:37:45.284Z,0.2
2019-04-14T03:38:40.194Z,0.2
2019-04-14T03:39:44.243Z,0.1
2019-04-14T03:40:45.136Z,0.2
2019-04-14T03:41:37.146Z,0.1
2019-04-14T03:42:48.547Z,0.1
2019-04-14T03:43:39.361Z,0.0
2019-04-14T03:45:00.440Z,0.1
2019-04-14T03:45:55.216Z,0.1
2019-04-14T03:46:49.358Z,0.1
2019-04-14T03:48:15.221Z,0.1
2019-04-14T03:48:58.432Z,0.1
2019-04-14T03:49:56.413Z,-0.1
2019-04-14T03:50:56.465Z,0.0
2019-04-14T03:53:16.287Z,-0.1
2019-04-14T03:54:00.283Z,-0.2
2019-04-14T03:54:50.071Z,-0.1
2019-04-14T03:55:43.033Z,-0.1
2019-04-14T03:56:36.208Z,-0.1
2019-04-14T03:57:36.885Z,-0.1
2019-04-14T03:58:37.940Z,-0.1
2019-04-14T03:59:39.210Z,-0.1
2019-04-14T04:00:39.986Z,-0.3
2019-04-14T04:01:39.599Z,-0.4
2019-04-14T04:02:40.274Z,-0.3
2019-04-14T04:03:41.415Z,-0.2
2019-04-14T04:04:42.308Z,-0.3
2019-04-14T04:05:43.408Z,-0.3
2019-04-14T04:06:44.169Z,-0.2
2019-04-14T04:07:43.655Z,-0.3
2019-04-14T04:08:44.330Z,-0.2
2019-04-14T04:09:45.437Z,-0.2
2019-04-14T04:10:46.482Z,-0.3
2019-04-14T04:11:47.557Z,-0.2
2019-04-14T04:12:48.710Z,-0.2
2019-04-14T04:13:49.856Z,-0.4
2019-04-14T04:14:49.358Z,-0.3
2019-04-14T04:15:50.042Z,-0.3
2019-04-14T04:16:50.838Z,-0.2
2019-04-14T04:17:51.665Z,-0.3
2019-04-14T04:18:59.874Z,-0.2
2019-04-14T04:19:53.436Z,-0.2
2019-04-14T04:20:54.425Z,-0.2
2019-04-14T04:21:55.043Z,-0.1
2019-04-14T04:22:54.789Z,-0.1
2019-04-14T04:23:55.475Z,-0.1
2019-04-14T04:24:56.467Z,-0.1
2019-04-14T04:25:57.250Z,-0.2
2019-04-14T04:26:58.194Z,-0.2
2019-04-14T04:27:59.081Z,-0.2
2019-04-14T04:28:58.871Z,-0.1
2019-04-14T04:29:59.549Z,-0.2
2019-04-14T04:31:00.260Z,-0.2
2019-04-14T04:32:01.400Z,-0.2
2019-04-14T04:33:02.313Z,-0.3
2019-04-14T04:34:03.317Z,-0.2
2019-04-14T04:35:04.210Z,-0.2
2019-04-14T04:36:03.647Z,-0.3
2019-04-14T04:37:04.327Z,-0.3
2019-04-14T04:38:05.202Z,-0.2
2019-04-14T04:39:06.083Z,-0.2
2019-04-14T04:40:07.229Z,-0.3
2019-04-14T04:41:08.028Z,-0.3
2019-04-14T04:42:09.002Z,-0.2
2019-04-14T04:43:08.417Z,-0.3
2019-04-14T04:44:09.423Z,-0.2
2019-04-14T04:45:10.386Z,-0.3
2019-04-14T04:46:11.306Z,-0.3
2019-04-14T04:47:12.226Z,-0.2
2019-04-14T04:48:13.043Z,-0.4
2019-04-14T04:49:18.319Z,-0.3
2019-04-14T04:50:13.173Z,-0.2
2019-04-14T04:51:13.954Z,-0.3
2019-04-14T04:52:15.741Z,-0.3
2019-04-14T04:53:15.786Z,-0.2
2019-04-14T04:54:16.855Z,-0.3
2019-04-14T04:55:17.652Z,-0.2
2019-04-14T04:56:17.271Z,-0.1
2019-04-14T04:57:17.955Z,-0.0
2019-04-14T04:58:19.502Z,-0.1
2019-04-14T04:59:19.312Z,0.0
2019-04-14T05:00:20.042Z,-0.1
2019-04-14T05:01:20.984Z,-0.0
2019-04-14T05:02:22.090Z,0.1
2019-04-14T05:03:23.235Z,0.1
2019-04-14T05:04:22.684Z,0.1
2019-04-14T05:05:23.359Z,0.1
2019-04-14T05:06:24.825Z,0.1
2019-04-14T05:07:25.266Z,0.1
2019-04-14T05:08:26.287Z,0.1
2019-04-14T05:09:27.378Z,0.1
2019-04-14T05:10:26.757Z,0.1
2019-04-14T05:11:27.443Z,0.2
2019-04-14T05:12:28.381Z,0.2
2019-04-14T05:13:29.195Z,0.2
2019-04-14T05:14:30.444Z,0.2
2019-04-14T05:15:30.998Z,0.3
2019-04-14T05:16:30.844Z,0.3
2019-04-14T05:17:32.018Z,0.3
2019-04-14T05:18:33.490Z,0.3
2019-04-14T05:19:36.008Z,0.4
2019-04-14T05:20:33.593Z,0.3
2019-04-14T05:21:34.338Z,0.4
2019-04-14T05:22:35.400Z,0.3
2019-04-14T05:23:36.629Z,0.4
2019-04-14T05:24:37.452Z,0.4
2019-04-14T05:25:36.979Z,0.4
2019-04-14T05:26:37.665Z,0.5
2019-04-14T05:27:38.745Z,0.4
2019-04-14T05:28:39.636Z,0.5
2019-04-14T05:29:40.734Z,0.6
2019-04-14T05:30:41.450Z,0.5
2019-04-14T05:31:41.104Z,0.5
2019-04-14T05:32:41.784Z,0.6
2019-04-14T05:33:42.600Z,0.7
2019-04-14T05:34:43.333Z,0.7
2019-04-14T05:35:44.516Z,0.9
2019-04-14T05:36:45.362Z,1.0
2019-04-14T05:37:46.395Z,1.0
2019-04-14T05:38:45.831Z,1.0
2019-04-14T05:39:46.516Z,1.1
2019-04-14T05:40:47.533Z,1.2
2019-04-14T05:41:58.086Z,1.3
2019-04-14T05:42:49.438Z,1.3
2019-04-14T05:43:55.140Z,1.4
2019-04-14T05:44:49.917Z,1.4
2019-04-14T05:45:50.601Z,1.6
2019-04-14T05:46:51.436Z,1.5
2019-04-14T05:47:52.294Z,1.6
2019-04-14T05:48:53.626Z,1.6
2019-04-14T05:49:54.992Z,1.7
2019-04-14T05:50:54.007Z,1.6
2019-04-14T05:51:54.683Z,1.7
2019-04-14T05:52:55.747Z,1.7
2019-04-14T05:53:56.659Z,1.8
2019-04-14T05:54:57.863Z,1.8
2019-04-14T05:55:57.421Z,1.8
2019-04-14T05:56:58.095Z,1.8
2019-04-14T05:57:59.204Z,1.8
2019-04-14T05:59:00.134Z,1.8
2019-04-14T06:00:00.143Z,1.8
2019-04-14T06:01:00.827Z,1.8
2019-04-14T06:02:02.597Z,1.9
2019-04-14T06:03:02.200Z,1.9
2019-04-14T06:04:02.882Z,1.9
2019-04-14T06:05:03.741Z,1.9
2019-04-14T06:06:04.264Z,1.8
2019-04-14T06:07:04.938Z,1.9
2019-04-14T06:08:05.628Z,1.9
2019-04-14T06:09:06.307Z,2.0
2019-04-14T06:10:06.998Z,2.0
2019-04-14T06:11:07.678Z,2.0
2019-04-14T06:12:08.358Z,2.0
2019-04-14T06:13:11.622Z,2.0
2019-04-14T06:14:09.730Z,2.1
2019-04-14T06:15:10.411Z,2.2
2019-04-14T06:16:11.094Z,2.2
2019-04-14T06:17:11.778Z,2.2
2019-04-14T06:18:12.465Z,2.2
2019-04-14T06:19:13.151Z,2.2
2019-04-14T06:20:13.852Z,2.2
2019-04-14T06:21:14.515Z,2.3
2019-04-14T06:22:15.199Z,2.3
2019-04-14T06:23:15.884Z,2.3
2019-04-14T06:24:16.566Z,2.3
2019-04-14T06:25:17.251Z,2.3
2019-04-14T06:26:17.934Z,2.4
2019-04-14T06:27:18.619Z,2.5
2019-04-14T06:28:19.301Z,2.6
2019-04-14T06:29:19.984Z,2.5
2019-04-14T06:30:20.668Z,2.6
2019-04-14T06:31:21.324Z,2.5
2019-04-14T06:32:22.006Z,2.6
2019-04-14T06:33:22.685Z,2.7
2019-04-14T06:34:23.370Z,2.5
2019-04-14T06:35:24.055Z,2.6
2019-04-14T06:36:24.737Z,2.6
2019-04-14T06:37:25.439Z,2.6
2019-04-14T06:38:26.109Z,2.7
2019-04-14T06:39:26.792Z,2.7
2019-04-14T06:40:27.479Z,2.8
2019-04-14T06:41:28.156Z,2.8
2019-04-14T06:42:28.837Z,2.8
2019-04-14T06:43:29.517Z,2.8
2019-04-14T06:44:30.201Z,2.8
2019-04-14T06:45:30.889Z,2.9
2019-04-14T06:46:31.576Z,2.8
2019-04-14T06:47:32.253Z,3.0
2019-04-14T06:48:32.936Z,3.1
2019-04-14T06:49:33.621Z,3.1
2019-04-14T06:50:34.304Z,3.2
2019-04-14T06:51:34.995Z,3.2
2019-04-14T06:52:35.673Z,3.4
2019-04-14T06:53:36.357Z,3.4
2019-04-14T06:54:37.045Z,3.5
2019-04-14T06:55:37.727Z,3.5
2019-04-14T06:56:38.407Z,3.4
2019-04-14T06:57:39.094Z,3.4
2019-04-14T06:58:39.783Z,3.3
2019-04-14T06:59:40.469Z,3.4
2019-04-14T07:00:41.151Z,3.6
2019-04-14T07:01:41.833Z,3.5
2019-04-14T07:02:42.517Z,3.5
2019-04-14T07:03:43.205Z,3.6
2019-04-14T07:04:43.894Z,3.5
2019-04-14T07:05:44.579Z,3.6
2019-04-14T07:06:45.265Z,3.6
2019-04-14T07:07:56.407Z,3.6
2019-04-14T07:08:46.631Z,3.5
2019-04-14T07:09:47.321Z,3.5
2019-04-14T07:10:47.999Z,3.5
2019-04-14T07:11:48.683Z,3.6
2019-04-14T07:12:49.366Z,3.7
2019-04-14T07:13:50.054Z,3.8
2019-04-14T07:14:50.738Z,3.8
2019-04-14T07:15:51.426Z,3.8
2019-04-14T07:16:52.109Z,3.8
2019-04-14T07:17:52.794Z,3.9
2019-04-14T07:18:53.478Z,4.1
2019-04-14T07:20:01.862Z,4.1
2019-04-14T07:20:54.845Z,4.3
2019-04-14T07:21:55.526Z,4.4
2019-04-14T07:22:56.210Z,4.5
2019-04-14T07:23:56.871Z,4.6
2019-04-14T07:24:57.550Z,4.6
2019-04-14T07:25:58.233Z,4.7
2019-04-14T07:26:58.921Z,4.7
2019-04-14T07:27:59.606Z,4.7
2019-04-14T07:29:00.296Z,4.8
2019-04-14T07:30:00.981Z,4.8
2019-04-14T07:31:01.637Z,4.9
2019-04-14T07:32:02.324Z,4.9
2019-04-14T07:33:03.015Z,5.1
2019-04-14T07:34:03.698Z,5.1
2019-04-14T07:35:04.381Z,5.3
2019-04-14T07:36:05.069Z,5.4
2019-04-14T07:37:05.753Z,5.6
2019-04-14T07:38:06.446Z,5.7
2019-04-14T07:39:07.133Z,6.1
2019-04-14T07:40:07.825Z,6.3
2019-04-14T07:41:08.509Z,6.5
2019-04-14T07:42:09.200Z,6.8
2019-04-14T07:43:09.881Z,7.0
2019-04-14T07:44:10.574Z,6.9
2019-04-14T07:45:11.258Z,7.0
2019-04-14T07:46:11.947Z,6.8
2019-04-14T07:47:12.637Z,6.8
2019-04-14T07:48:13.324Z,6.6
2019-04-14T07:49:14.018Z,6.5
2019-04-14T07:50:15.304Z,6.5
2019-04-14T07:51:15.385Z,6.1
2019-04-14T07:52:16.076Z,6.2
2019-04-14T07:53:16.760Z,6.2
2019-04-14T07:54:17.450Z,6.3
2019-04-14T07:55:18.137Z,6.4
2019-04-14T07:56:18.828Z,6.3
2019-04-14T07:57:19.515Z,6.5
2019-04-14T07:58:20.202Z,6.6
2019-04-14T07:59:20.889Z,6.8
2019-04-14T08:00:21.586Z,6.9
2019-04-14T08:01:22.267Z,7.0
2019-04-14T08:02:22.954Z,7.3
2019-04-14T08:03:23.654Z,7.1
2019-04-14T08:04:24.333Z,7.2
2019-04-14T08:05:25.022Z,7.3
2019-04-14T08:06:25.709Z,7.4
2019-04-14T08:07:26.399Z,7.2
2019-04-14T08:08:27.095Z,7.4
2019-04-14T08:09:27.789Z,7.4
2019-04-14T08:10:28.470Z,7.3
2019-04-14T08:11:29.158Z,7.4
2019-04-14T08:12:29.848Z,7.4
2019-04-14T08:13:30.537Z,7.5
2019-04-14T08:14:31.234Z,7.4
2019-04-14T08:15:31.922Z,7.2
2019-04-14T08:16:32.603Z,7.1
2019-04-14T08:17:33.293Z,7.3
2019-04-14T08:18:33.988Z,7.3
2019-04-14T08:19:34.678Z,7.3
2019-04-14T08:20:35.361Z,7.4
2019-04-14T08:21:36.049Z,7.6
2019-04-14T08:22:36.741Z,7.8
2019-04-14T08:23:37.435Z,7.7
2019-04-14T08:24:38.122Z,7.6
2019-04-14T08:25:38.810Z,7.7
2019-04-14T08:26:39.496Z,7.8
2019-04-14T08:27:40.185Z,7.8
2019-04-14T08:28:40.878Z,7.7
2019-04-14T08:29:41.571Z,7.6
2019-04-14T08:30:42.260Z,7.6
2019-04-14T08:31:42.953Z,7.7
2019-04-14T08:32:43.636Z,7.8
2019-04-14T08:33:44.329Z,7.9
2019-04-14T08:34:45.021Z,7.9
2019-04-14T08:35:45.715Z,8.1
2019-04-14T08:36:46.466Z,8.2
2019-04-14T08:37:47.089Z,8.3
2019-04-14T08:38:47.778Z,8.2
2019-04-14T08:39:48.471Z,7.9
2019-04-14T08:40:49.158Z,8.2
2019-04-14T08:41:49.822Z,8.1
2019-04-14T08:42:50.508Z,8.1
2019-04-14T08:43:51.208Z,8.1
2019-04-14T08:44:51.938Z,8.1
2019-04-14T08:45:52.636Z,8.1
2019-04-14T08:46:53.319Z,8.1
2019-04-14T08:47:54.015Z,8.4
2019-04-14T08:48:54.701Z,8.5
2019-04-14T08:49:55.392Z,8.5
2019-04-14T08:50:56.083Z,8.6
2019-04-14T08:51:56.775Z,8.6
2019-04-14T08:52:57.465Z,8.7
2019-04-14T08:53:58.155Z,8.9
2019-04-14T08:54:58.847Z,9.0
2019-04-14T08:55:59.540Z,8.9
2019-04-14T08:57:00.228Z,9.0
2019-04-14T08:58:00.921Z,9.1
2019-04-14T08:59:01.614Z,8.9
2019-04-14T09:00:02.331Z,9.2
2019-04-14T09:01:02.994Z,9.3
2019-04-14T09:02:03.690Z,9.6
2019-04-14T09:03:04.376Z,9.6
2019-04-14T09:04:05.075Z,9.7
2019-04-14T09:05:05.771Z,9.9
2019-04-14T09:06:06.463Z,10.0
2019-04-14T09:07:07.147Z,10.0
2019-04-14T09:08:08.400Z,10.1
2019-04-14T09:09:09.061Z,9.8
2019-04-14T09:10:09.717Z,9.9
2019-04-14T09:11:10.420Z,9.9
2019-04-14T09:12:15.745Z,9.9
2019-04-14T09:13:11.812Z,10.0
2019-04-14T09:14:12.523Z,10.0
2019-04-14T09:15:13.239Z,10.0
2019-04-14T09:16:13.932Z,9.7
2019-04-14T09:17:14.614Z,9.9
2019-04-14T09:18:15.303Z,9.9
2019-04-14T09:19:15.999Z,10.0
2019-04-14T09:20:16.699Z,10.0
2019-04-14T09:21:17.397Z,9.9
2019-04-14T09:22:18.083Z,10.0
2019-04-14T09:23:18.846Z,10.0
2019-04-14T09:24:19.481Z,9.8
2019-04-14T09:25:20.173Z,10.0
2019-04-14T09:26:20.877Z,10.2
2019-04-14T09:27:21.569Z,10.4
2019-04-14T09:28:22.254Z,10.5
2019-04-14T09:29:23.086Z,10.5
2019-04-14T09:30:23.809Z,10.4
2019-04-14T09:31:24.507Z,10.2
2019-04-14T09:32:25.196Z,10.2
2019-04-14T09:33:25.890Z,10.5
2019-04-14T09:34:26.580Z,10.6
2019-04-14T09:35:27.243Z,10.3
2019-04-14T09:36:27.941Z,10.2
2019-04-14T09:37:28.633Z,10.4
2019-04-14T09:38:29.417Z,10.2
2019-04-14T09:39:30.097Z,10.4
2019-04-14T09:40:30.789Z,10.6
2019-04-14T09:41:31.505Z,10.6
2019-04-14T09:42:32.180Z,11.0
2019-04-14T09:43:32.882Z,10.7
2019-04-14T09:44:33.589Z,11.0
2019-04-14T09:45:34.276Z,11.1
2019-04-14T09:46:34.975Z,11.2
2019-04-14T09:47:35.675Z,10.9
2019-04-14T09:48:36.367Z,11.1
2019-04-14T09:49:37.068Z,11.2
2019-04-14T09:50:37.762Z,11.5
2019-04-14T09:51:38.518Z,11.6
2019-04-14T09:52:39.150Z,11.8
2019-04-14T09:53:39.849Z,12.1
2019-04-14T09:54:40.551Z,11.9
2019-04-14T09:55:41.251Z,12.1
2019-04-14T09:56:41.949Z,12.2
2019-04-14T09:57:42.643Z,12.3
2019-04-14T09:58:43.309Z,11.9
2019-04-14T09:59:44.003Z,11.5
2019-04-14T10:00:44.704Z,11.4
2019-04-14T10:01:45.385Z,10.9
2019-04-14T10:02:46.084Z,10.9
2019-04-14T10:03:46.778Z,10.7
2019-04-14T10:04:47.472Z,10.7
2019-04-14T10:05:48.171Z,10.7
2019-04-14T10:06:48.860Z,10.8
2019-04-14T10:07:49.549Z,10.8
2019-04-14T10:08:50.261Z,10.7
2019-04-14T10:09:50.921Z,10.7
2019-04-14T10:10:51.614Z,10.8
2019-04-14T10:11:55.984Z,10.8
2019-04-14T10:12:53.015Z,10.9
2019-04-14T10:13:53.692Z,11.2
2019-04-14T10:14:54.351Z,11.3
2019-04-14T10:15:55.047Z,11.3
2019-04-14T10:16:55.741Z,11.0
2019-04-14T10:17:56.437Z,11.2
2019-04-14T10:18:57.134Z,11.7
2019-04-14T10:19:57.838Z,11.5
2019-04-14T10:20:58.533Z,11.7
2019-04-14T10:21:59.222Z,11.6
2019-04-14T10:22:59.919Z,11.7
2019-04-14T10:24:00.610Z,11.8
2019-04-14T10:25:01.305Z,12.0
2019-04-14T10:26:01.994Z,12.0
2019-04-14T10:27:02.684Z,12.1
2019-04-14T10:28:03.381Z,12.5
2019-04-14T10:29:04.103Z,12.7
2019-04-14T10:30:04.780Z,12.5
2019-04-14T10:31:05.489Z,12.7
2019-04-14T10:32:06.166Z,13.0
2019-04-14T10:33:06.863Z,13.1
2019-04-14T10:34:09.841Z,13.5
2019-04-14T10:35:08.284Z,13.2
2019-04-14T10:36:08.976Z,13.4
2019-04-14T10:37:09.673Z,13.4
2019-04-14T10:38:10.417Z,13.1
2019-04-14T10:39:11.126Z,12.8
2019-04-14T10:40:11.831Z,12.8
2019-04-14T10:41:12.520Z,12.8
2019-04-14T10:42:13.225Z,12.5
2019-04-14T10:43:13.925Z,12.3
2019-04-14T10:44:14.613Z,12.4
2019-04-14T10:45:18.125Z,12.6
2019-04-14T10:46:16.157Z,12.8
2019-04-14T10:47:16.868Z,12.8
2019-04-14T10:48:17.570Z,12.9
2019-04-14T10:49:18.282Z,13.0
2019-04-14T10:50:30.284Z,13.1
2019-04-14T10:51:29.356Z,13.1
2019-04-14T10:52:20.375Z,13.3
2019-04-14T10:53:21.070Z,13.4
2019-04-14T10:54:21.765Z,13.7
2019-04-14T10:55:22.491Z,14.2
2019-04-14T10:56:23.241Z,14.5
2019-04-14T10:57:23.942Z,14.7
2019-04-14T10:58:24.656Z,15.2
2019-04-14T10:59:25.346Z,15.0
2019-04-14T11:00:26.047Z,15.3
2019-04-14T11:01:26.731Z,15.0
2019-04-14T11:02:27.460Z,14.8
2019-04-14T11:03:28.163Z,14.4
2019-04-14T11:04:28.864Z,14.2
2019-04-14T11:05:29.567Z,13.6
2019-04-14T11:06:30.267Z,13.6
2019-04-14T11:07:30.973Z,13.6
2019-04-14T11:08:31.671Z,13.5
2019-04-14T11:09:32.374Z,13.4
2019-04-14T11:10:33.070Z,13.2
2019-04-14T11:11:33.767Z,12.9
2019-04-14T11:12:34.467Z,12.6
2019-04-14T11:13:35.172Z,12.7
2019-04-14T11:14:35.872Z,12.8
2019-04-14T11:15:36.626Z,13.0
2019-04-14T11:16:37.397Z,13.1
2019-04-14T11:17:38.126Z,12.9
2019-04-14T11:18:38.892Z,13.0
2019-04-14T11:19:39.580Z,12.9
2019-04-14T11:20:40.287Z,12.7
2019-04-14T11:21:42.664Z,12.3
2019-04-14T11:22:41.688Z,12.1
2019-04-14T11:23:42.395Z,12.1
2019-04-14T11:24:43.082Z,12.2
2019-04-14T11:25:43.780Z,12.1
2019-04-14T11:26:44.485Z,12.2
2019-04-14T11:27:45.296Z,12.4
2019-04-14T11:28:46.005Z,12.7
2019-04-14T11:29:46.711Z,12.8
2019-04-14T11:30:47.422Z,12.9
2019-04-14T11:31:48.121Z,12.6
2019-04-14T11:32:48.824Z,12.4
2019-04-14T11:33:49.551Z,11.8
2019-04-14T11:34:50.245Z,11.7
2019-04-14T11:35:50.949Z,11.8
2019-04-14T11:36:51.813Z,11.9
2019-04-14T11:37:52.504Z,12.2
2019-04-14T11:38:53.195Z,12.3
2019-04-14T11:39:53.887Z,12.2
2019-04-14T11:40:54.590Z,12.6
2019-04-14T11:41:55.309Z,12.6
2019-04-14T11:42:56.000Z,12.9
2019-04-14T11:43:56.686Z,13.5
2019-04-14T11:44:57.394Z,13.5
2019-04-14T11:45:58.083Z,14.0
2019-04-14T11:46:58.804Z,14.4
2019-04-14T11:47:59.507Z,14.7
2019-04-14T11:49:00.211Z,15.0
2019-04-14T11:50:00.914Z,15.0
2019-04-14T11:51:01.598Z,14.3
2019-04-14T11:52:02.292Z,13.8
2019-04-14T11:53:02.983Z,13.5
2019-04-14T11:54:03.828Z,13.6
2019-04-14T11:55:04.524Z,13.7
2019-04-14T11:56:05.215Z,13.7
2019-04-14T11:57:05.971Z,13.4
2019-04-14T11:58:06.665Z,13.5
2019-04-14T11:59:07.348Z,13.5
2019-04-14T12:00:08.055Z,13.5
2019-04-14T12:01:08.757Z,13.6
2019-04-14T12:02:09.449Z,13.4
2019-04-14T12:03:10.139Z,13.8
2019-04-14T12:04:10.836Z,13.9
2019-04-14T12:05:11.530Z,13.9
2019-04-14T12:06:12.222Z,13.8
2019-04-14T12:07:12.922Z,13.5
2019-04-14T12:08:13.622Z,13.5
2019-04-14T12:09:14.321Z,13.6
2019-04-14T12:10:15.047Z,13.5
2019-04-14T12:11:15.723Z,13.6
2019-04-14T12:12:16.448Z,13.6
2019-04-14T12:13:17.146Z,13.3
2019-04-14T12:14:18.338Z,13.1
2019-04-14T12:15:19.017Z,13.0
2019-04-14T12:16:19.719Z,12.9
2019-04-14T12:17:20.402Z,12.7
2019-04-14T12:18:21.107Z,12.7
2019-04-14T12:19:21.798Z,12.9
2019-04-14T12:20:22.489Z,12.5
2019-04-14T12:21:23.191Z,12.6
2019-04-14T12:22:23.883Z,12.4
2019-04-14T12:23:24.581Z,12.3
2019-04-14T12:24:25.270Z,12.1
2019-04-14T12:25:25.963Z,12.1
2019-04-14T12:26:26.651Z,12.0
2019-04-14T12:27:27.355Z,11.9
2019-04-14T12:28:28.455Z,11.9
2019-04-14T12:29:28.735Z,11.9
2019-04-14T12:30:29.430Z,11.9
2019-04-14T12:31:30.962Z,12.0
2019-04-14T12:32:30.815Z,12.1
2019-04-14T12:33:31.517Z,12.2
2019-04-14T12:34:32.207Z,12.1
2019-04-14T12:35:32.874Z,12.0
2019-04-14T12:36:33.573Z,11.9
2019-04-14T12:37:34.266Z,12.1
2019-04-14T12:38:34.965Z,12.3
2019-04-14T12:39:35.667Z,12.4
2019-04-14T12:40:36.929Z,12.4
2019-04-14T12:41:37.692Z,12.1
2019-04-14T12:42:37.738Z,12.2
2019-04-14T12:43:38.434Z,12.1
2019-04-14T12:44:39.129Z,12.3
2019-04-14T12:45:39.818Z,12.1
2019-04-14T12:46:40.514Z,11.9
2019-04-14T12:47:41.208Z,11.9
2019-04-14T12:48:41.901Z,11.7
2019-04-14T12:49:42.598Z,11.4
2019-04-14T12:50:43.291Z,11.5
2019-04-14T12:51:43.982Z,11.3
2019-04-14T12:52:44.686Z,11.1
2019-04-14T12:53:45.379Z,11.0
2019-04-14T12:54:46.070Z,10.7
2019-04-14T12:55:46.768Z,10.6
2019-04-14T12:56:47.455Z,10.5
2019-04-14T12:57:48.154Z,10.4
2019-04-14T12:58:48.845Z,10.3
2019-04-14T12:59:49.536Z,10.3
2019-04-14T13:00:50.230Z,10.3
2019-04-14T13:01:50.924Z,10.1
2019-04-14T13:02:51.612Z,10.2
2019-04-14T13:03:52.305Z,10.1
2019-04-14T13:04:55.247Z,10.1
2019-04-14T13:05:53.695Z,10.2
2019-04-14T13:06:54.379Z,10.3
2019-04-14T13:07:55.070Z,10.2
2019-04-14T13:08:55.764Z,10.0
2019-04-14T13:09:56.452Z,9.9
2019-04-14T13:10:57.144Z,9.9
2019-04-14T13:11:57.837Z,9.9
2019-04-14T13:12:58.528Z,10.0
2019-04-14T13:13:59.220Z,10.1
2019-04-14T13:15:02.738Z,9.8
2019-04-14T13:16:00.640Z,9.8
2019-04-14T13:17:01.288Z,9.8
2019-04-14T13:18:01.981Z,9.8
2019-04-14T13:19:02.758Z,9.9
2019-04-14T13:20:03.592Z,9.8
2019-04-14T13:21:04.283Z,9.9
2019-04-14T13:22:04.942Z,9.9
2019-04-14T13:23:05.642Z,9.9
2019-04-14T13:24:06.321Z,9.9
2019-04-14T13:25:07.238Z,9.7
2019-04-14T13:26:07.873Z,9.7
2019-04-14T13:27:08.626Z,9.8
2019-04-14T13:28:09.271Z,9.9
2019-04-14T13:29:09.966Z,9.9
2019-04-14T13:30:10.632Z,9.9
2019-04-14T13:31:11.330Z,9.7
2019-04-14T13:32:12.017Z,9.6
2019-04-14T13:33:12.705Z,9.6
2019-04-14T13:34:13.394Z,9.8
2019-04-14T13:35:14.087Z,9.8
2019-04-14T13:36:14.781Z,9.8
2019-04-14T13:37:15.477Z,9.7
2019-04-14T13:38:16.286Z,9.7
2019-04-14T13:39:16.981Z,9.8
2019-04-14T13:40:17.670Z,9.7
2019-04-14T13:41:18.367Z,9.6
2019-04-14T13:42:19.116Z,9.7
2019-04-14T13:43:19.820Z,9.6
2019-04-14T13:44:20.509Z,9.7
2019-04-14T13:45:21.198Z,9.7
2019-04-14T13:46:21.890Z,9.3
2019-04-14T13:47:22.576Z,9.5
2019-04-14T13:48:23.265Z,9.6
2019-04-14T13:49:23.965Z,9.6
2019-04-14T13:50:24.650Z,9.7
2019-04-14T13:51:25.335Z,9.6
2019-04-14T13:52:26.024Z,9.7
2019-04-14T13:53:26.723Z,9.8
2019-04-14T13:54:27.410Z,9.8
2019-04-14T13:55:28.069Z,9.8
2019-04-14T13:56:28.757Z,9.9
2019-04-14T13:57:29.453Z,9.9
2019-04-14T13:58:30.142Z,9.9
2019-04-14T13:59:30.830Z,10.0
2019-04-14T14:00:31.523Z,10.0